sensor_id;sensor_type;location;lat;lon;timestamp;P1;durP1;ratioP1;P2;durP2;ratioP2
55053;SDS011;40954;45.668;18.980;2022-08-11T00:01:33;4.38;;;2.45;;
55053;SDS011;40954;45.668;18.980;2022-08-11T00:03:59;2.35;;;2.15;;
55053;SDS011;40954;45.668;18.980;2022-08-11T00:06:31;2.45;;;2.10;;
55053;SDS011;40954;45.668;18.980;2022-08-11T00:08:58;3.20;;;2.83;;
55053;SDS011;40954;45.668;18.980;2022-08-11T00:11:35;4.72;;;2.42;;
55053;SDS011;40954;45.668;18.980;2022-08-11T00:14:02;2.85;;;2.10;;
55053;SDS011;40954;45.668;18.980;2022-08-11T00:16:29;6.55;;;2.88;;
55053;SDS011;40954;45.668;18.980;2022-08-11T00:18:55;3.58;;;2.83;;
55053;SDS011;40954;45.668;18.980;2022-08-11T00:21:23;6.05;;;2.60;;
55053;SDS011;40954;45.668;18.980;2022-08-11T00:23:54;4.63;;;2.30;;
55053;SDS011;40954;45.668;18.980;2022-08-11T00:26:21;2.50;;;2.30;;
55053;SDS011;40954;45.668;18.980;2022-08-11T00:28:47;4.60;;;2.50;;
55053;SDS011;40954;45.668;18.980;2022-08-11T00:31:28;2.53;;;2.15;;
55053;SDS011;40954;45.668;18.980;2022-08-11T00:33:55;4.35;;;2.20;;
55053;SDS011;40954;45.668;18.980;2022-08-11T00:36:25;5.65;;;2.22;;
55053;SDS011;40954;45.668;18.980;2022-08-11T00:38:51;5.43;;;2.55;;
55053;SDS011;40954;45.668;18.980;2022-08-11T00:44:06;4.25;;;2.33;;
55053;SDS011;40954;45.668;18.980;2022-08-11T00:52:09;5.10;;;2.20;;
55053;SDS011;40954;45.668;18.980;2022-08-11T01:00:03;3.75;;;2.20;;
55053;SDS011;40954;45.668;18.980;2022-08-11T01:48:40;3.15;;;2.10;;
55053;SDS011;40954;45.668;18.980;2022-08-11T01:51:02;3.28;;;2.63;;
55053;SDS011;40954;45.668;18.980;2022-08-11T01:56:23;3.72;;;2.22;;
55053;SDS011;40954;45.668;18.980;2022-08-11T02:06:52;2.70;;;2.25;;
55053;SDS011;40954;45.668;18.980;2022-08-11T02:11:52;4.63;;;2.35;;
55053;SDS011;40954;45.668;18.980;2022-08-11T02:16:53;6.95;;;2.40;;
55053;SDS011;40954;45.668;18.980;2022-08-11T02:22:35;5.45;;;2.40;;
55053;SDS011;40954;45.668;18.980;2022-08-11T02:25:39;5.07;;;2.60;;
55053;SDS011;40954;45.668;18.980;2022-08-11T02:33:41;3.28;;;2.53;;
55053;SDS011;40954;45.668;18.980;2022-08-11T02:47:02;3.85;;;2.10;;
55053;SDS011;40954;45.668;18.980;2022-08-11T02:52:24;2.55;;;2.35;;
55053;SDS011;40954;45.668;18.980;2022-08-11T02:57:40;3.40;;;2.50;;
55053;SDS011;40954;45.668;18.980;2022-08-11T03:00:09;2.80;;;2.60;;
55053;SDS011;40954;45.668;18.980;2022-08-11T03:02:48;3.17;;;2.30;;
55053;SDS011;40954;45.668;18.980;2022-08-11T03:05:21;4.25;;;2.20;;
55053;SDS011;40954;45.668;18.980;2022-08-11T03:13:22;4.93;;;2.63;;
55053;SDS011;40954;45.668;18.980;2022-08-11T03:24:44;3.90;;;2.40;;
55053;SDS011;40954;45.668;18.980;2022-08-11T03:32:45;14.48;;;2.95;;
55053;SDS011;40954;45.668;18.980;2022-08-11T03:38:21;4.00;;;2.50;;
55053;SDS011;40954;45.668;18.980;2022-08-11T03:41:07;3.22;;;2.33;;
55053;SDS011;40954;45.668;18.980;2022-08-11T03:46:35;3.20;;;2.20;;
55053;SDS011;40954;45.668;18.980;2022-08-11T03:49:49;3.58;;;2.45;;
55053;SDS011;40954;45.668;18.980;2022-08-11T03:51:54;2.50;;;2.30;;
55053;SDS011;40954;45.668;18.980;2022-08-11T03:59:58;2.22;;;2.03;;
55053;SDS011;40954;45.668;18.980;2022-08-11T04:21:06;3.13;;;2.15;;
55053;SDS011;40954;45.668;18.980;2022-08-11T04:49:53;3.40;;;2.03;;
55053;SDS011;40954;45.668;18.980;2022-08-11T04:56:24;2.45;;;2.15;;
55053;SDS011;40954;45.668;18.980;2022-08-11T05:12:27;4.55;;;3.30;;
55053;SDS011;40954;45.668;18.980;2022-08-11T05:14:54;3.15;;;2.08;;
55053;SDS011;40954;45.668;18.980;2022-08-11T05:17:41;3.40;;;2.60;;
55053;SDS011;40954;45.668;18.980;2022-08-11T05:20:26;2.53;;;2.03;;
55053;SDS011;40954;45.668;18.980;2022-08-11T05:23:12;2.42;;;2.22;;
55053;SDS011;40954;45.668;18.980;2022-08-11T05:25:59;2.95;;;2.75;;
55053;SDS011;40954;45.668;18.980;2022-08-11T05:28:49;3.78;;;2.78;;
55053;SDS011;40954;45.668;18.980;2022-08-11T05:31:36;3.53;;;2.13;;
55053;SDS011;40954;45.668;18.980;2022-08-11T05:34:22;3.00;;;2.22;;
55053;SDS011;40954;45.668;18.980;2022-08-11T05:37:10;4.18;;;2.20;;
55053;SDS011;40954;45.668;18.980;2022-08-11T05:39:40;3.35;;;2.10;;
55053;SDS011;40954;45.668;18.980;2022-08-11T05:42:25;2.58;;;2.03;;
55053;SDS011;40954;45.668;18.980;2022-08-11T05:45:13;3.17;;;2.20;;
55053;SDS011;40954;45.668;18.980;2022-08-11T05:47:58;2.50;;;2.30;;
55053;SDS011;40954;45.668;18.980;2022-08-11T05:50:50;3.38;;;2.28;;
55053;SDS011;40954;45.668;18.980;2022-08-11T05:53:41;5.82;;;2.00;;
55053;SDS011;40954;45.668;18.980;2022-08-11T05:56:26;2.28;;;2.03;;
55053;SDS011;40954;45.668;18.980;2022-08-11T05:58:53;3.45;;;2.08;;
55053;SDS011;40954;45.668;18.980;2022-08-11T06:01:21;5.53;;;2.60;;
55053;SDS011;40954;45.668;18.980;2022-08-11T06:03:49;2.78;;;2.45;;
55053;SDS011;40954;45.668;18.980;2022-08-11T06:06:34;2.58;;;2.17;;
55053;SDS011;40954;45.668;18.980;2022-08-11T06:09:01;2.40;;;2.20;;
55053;SDS011;40954;45.668;18.980;2022-08-11T06:11:27;3.83;;;2.10;;
55053;SDS011;40954;45.668;18.980;2022-08-11T06:13:55;4.90;;;2.38;;
55053;SDS011;40954;45.668;18.980;2022-08-11T06:16:22;2.25;;;2.05;;
55053;SDS011;40954;45.668;18.980;2022-08-11T06:18:50;3.75;;;2.08;;
55053;SDS011;40954;45.668;18.980;2022-08-11T06:21:16;2.03;;;1.83;;
55053;SDS011;40954;45.668;18.980;2022-08-11T06:23:43;1.92;;;1.83;;
55053;SDS011;40954;45.668;18.980;2022-08-11T06:26:10;2.80;;;2.20;;
55053;SDS011;40954;45.668;18.980;2022-08-11T06:28:37;4.03;;;2.00;;
55053;SDS011;40954;45.668;18.980;2022-08-11T06:31:13;2.00;;;1.80;;
55053;SDS011;40954;45.668;18.980;2022-08-11T06:33:46;3.97;;;2.03;;
55053;SDS011;40954;45.668;18.980;2022-08-11T06:44:08;2.10;;;1.90;;
55053;SDS011;40954;45.668;18.980;2022-08-11T06:46:47;2.17;;;2.05;;
55053;SDS011;40954;45.668;18.980;2022-08-11T06:49:15;2.10;;;1.90;;
55053;SDS011;40954;45.668;18.980;2022-08-11T06:52:05;4.05;;;2.15;;
55053;SDS011;40954;45.668;18.980;2022-08-11T06:54:35;2.40;;;1.70;;
55053;SDS011;40954;45.668;18.980;2022-08-11T06:57:05;4.55;;;2.38;;
55053;SDS011;40954;45.668;18.980;2022-08-11T06:59:50;5.40;;;3.10;;
55053;SDS011;40954;45.668;18.980;2022-08-11T07:02:37;2.88;;;2.58;;
55053;SDS011;40954;45.668;18.980;2022-08-11T07:11:06;2.33;;;2.10;;
55053;SDS011;40954;45.668;18.980;2022-08-11T07:14:00;3.75;;;2.05;;
55053;SDS011;40954;45.668;18.980;2022-08-11T07:16:46;2.47;;;1.83;;
55053;SDS011;40954;45.668;18.980;2022-08-11T07:19:14;3.25;;;2.30;;
55053;SDS011;40954;45.668;18.980;2022-08-11T07:22:01;2.85;;;2.38;;
55053;SDS011;40954;45.668;18.980;2022-08-11T07:25:00;3.28;;;2.40;;
55053;SDS011;40954;45.668;18.980;2022-08-11T07:27:47;2.38;;;2.17;;
55053;SDS011;40954;45.668;18.980;2022-08-11T07:30:47;3.60;;;2.17;;
55053;SDS011;40954;45.668;18.980;2022-08-11T07:33:18;2.28;;;1.83;;
55053;SDS011;40954;45.668;18.980;2022-08-11T07:35:48;3.40;;;2.20;;
55053;SDS011;40954;45.668;18.980;2022-08-11T07:38:22;5.88;;;4.82;;
55053;SDS011;40954;45.668;18.980;2022-08-11T07:41:07;6.35;;;1.98;;
55053;SDS011;40954;45.668;18.980;2022-08-11T07:43:34;3.28;;;2.20;;
55053;SDS011;40954;45.668;18.980;2022-08-11T07:46:00;1.95;;;1.63;;
55053;SDS011;40954;45.668;18.980;2022-08-11T07:48:46;7.15;;;1.83;;
55053;SDS011;40954;45.668;18.980;2022-08-11T07:51:31;3.55;;;1.90;;
55053;SDS011;40954;45.668;18.980;2022-08-11T07:54:16;1.88;;;1.77;;
55053;SDS011;40954;45.668;18.980;2022-08-11T07:56:42;2.45;;;2.25;;
55053;SDS011;40954;45.668;18.980;2022-08-11T07:59:09;6.75;;;2.63;;
55053;SDS011;40954;45.668;18.980;2022-08-11T08:01:55;3.95;;;2.10;;
55053;SDS011;40954;45.668;18.980;2022-08-11T08:04:40;2.65;;;2.08;;
55053;SDS011;40954;45.668;18.980;2022-08-11T08:07:25;2.40;;;1.92;;
55053;SDS011;40954;45.668;18.980;2022-08-11T08:10:10;4.38;;;2.22;;
55053;SDS011;40954;45.668;18.980;2022-08-11T08:12:54;2.78;;;2.30;;
55053;SDS011;40954;45.668;18.980;2022-08-11T08:15:39;4.15;;;2.67;;
55053;SDS011;40954;45.668;18.980;2022-08-11T08:18:25;6.82;;;6.13;;
55053;SDS011;40954;45.668;18.980;2022-08-11T08:20:51;2.95;;;2.60;;
55053;SDS011;40954;45.668;18.980;2022-08-11T08:23:20;3.03;;;2.38;;
55053;SDS011;40954;45.668;18.980;2022-08-11T08:25:59;4.38;;;2.78;;
55053;SDS011;40954;45.668;18.980;2022-08-11T08:28:26;2.47;;;2.28;;
55053;SDS011;40954;45.668;18.980;2022-08-11T08:30:52;4.82;;;2.22;;
55053;SDS011;40954;45.668;18.980;2022-08-11T08:35:47;5.53;;;3.15;;
55053;SDS011;40954;45.668;18.980;2022-08-11T08:38:13;2.78;;;2.25;;
55053;SDS011;40954;45.668;18.980;2022-08-11T08:40:41;2.55;;;1.95;;
55053;SDS011;40954;45.668;18.980;2022-08-11T08:43:09;3.05;;;2.10;;
55053;SDS011;40954;45.668;18.980;2022-08-11T08:45:36;2.53;;;2.22;;
55053;SDS011;40954;45.668;18.980;2022-08-11T08:48:05;1.88;;;1.77;;
55053;SDS011;40954;45.668;18.980;2022-08-11T08:50:34;4.47;;;2.28;;
55053;SDS011;40954;45.668;18.980;2022-08-11T08:53:20;1.92;;;1.83;;
55053;SDS011;40954;45.668;18.980;2022-08-11T08:55:48;5.07;;;2.08;;
55053;SDS011;40954;45.668;18.980;2022-08-11T08:58:15;14.77;;;2.95;;
55053;SDS011;40954;45.668;18.980;2022-08-11T09:00:44;18.55;;;3.75;;
55053;SDS011;40954;45.668;18.980;2022-08-11T09:03:11;10.82;;;1.77;;
55053;SDS011;40954;45.668;18.980;2022-08-11T09:05:38;15.50;;;2.92;;
55053;SDS011;40954;45.668;18.980;2022-08-11T09:08:04;3.30;;;2.25;;
55053;SDS011;40954;45.668;18.980;2022-08-11T09:10:32;4.43;;;2.47;;
55053;SDS011;40954;45.668;18.980;2022-08-11T09:12:59;3.35;;;1.73;;
55053;SDS011;40954;45.668;18.980;2022-08-11T09:15:25;13.88;;;2.83;;
55053;SDS011;40954;45.668;18.980;2022-08-11T09:17:53;8.90;;;2.38;;
55053;SDS011;40954;45.668;18.980;2022-08-11T09:20:28;8.82;;;2.05;;
55053;SDS011;40954;45.668;18.980;2022-08-11T09:22:58;301.02;;;224.82;;
55053;SDS011;40954;45.668;18.980;2022-08-11T09:25:44;437.33;;;365.05;;
55053;SDS011;40954;45.668;18.980;2022-08-11T09:28:29;651.80;;;560.92;;
55053;SDS011;40954;45.668;18.980;2022-08-11T09:30:56;194.70;;;167.13;;
55053;SDS011;40954;45.668;18.980;2022-08-11T09:33:25;629.97;;;525.97;;
55053;SDS011;40954;45.668;18.980;2022-08-11T09:35:52;485.90;;;419.65;;
55053;SDS011;40954;45.668;18.980;2022-08-11T09:38:19;681.70;;;596.58;;
55053;SDS011;40954;45.668;18.980;2022-08-11T09:41:07;171.10;;;143.45;;
55053;SDS011;40954;45.668;18.980;2022-08-11T09:43:43;431.25;;;374.10;;
55053;SDS011;40954;45.668;18.980;2022-08-11T09:46:29;12.18;;;9.50;;
55053;SDS011;40954;45.668;18.980;2022-08-11T09:48:57;5.20;;;4.22;;
55053;SDS011;40954;45.668;18.980;2022-08-11T09:51:24;336.92;;;298.92;;
55053;SDS011;40954;45.668;18.980;2022-08-11T09:53:50;330.23;;;292.85;;
55053;SDS011;40954;45.668;18.980;2022-08-11T09:56:18;468.80;;;417.20;;
55053;SDS011;40954;45.668;18.980;2022-08-11T09:59:03;301.55;;;259.40;;
55053;SDS011;40954;45.668;18.980;2022-08-11T10:01:31;241.63;;;207.85;;
55053;SDS011;40954;45.668;18.980;2022-08-11T10:04:00;418.27;;;367.00;;
55053;SDS011;40954;45.668;18.980;2022-08-11T10:06:28;394.98;;;347.08;;
55053;SDS011;40954;45.668;18.980;2022-08-11T10:09:15;393.20;;;337.65;;
55053;SDS011;40954;45.668;18.980;2022-08-11T10:11:43;366.10;;;322.02;;
55053;SDS011;40954;45.668;18.980;2022-08-11T10:14:10;135.13;;;118.63;;
55053;SDS011;40954;45.668;18.980;2022-08-11T10:16:54;259.17;;;229.07;;
55053;SDS011;40954;45.668;18.980;2022-08-11T10:19:21;28.40;;;25.20;;
55053;SDS011;40954;45.668;18.980;2022-08-11T10:21:49;288.50;;;255.50;;
55053;SDS011;40954;45.668;18.980;2022-08-11T10:24:36;185.60;;;162.48;;
55053;SDS011;40954;45.668;18.980;2022-08-11T10:27:21;152.68;;;130.13;;
55053;SDS011;40954;45.668;18.980;2022-08-11T10:29:47;231.98;;;202.13;;
55053;SDS011;40954;45.668;18.980;2022-08-11T10:32:33;66.47;;;54.55;;
55053;SDS011;40954;45.668;18.980;2022-08-11T10:35:20;126.28;;;112.40;;
55053;SDS011;40954;45.668;18.980;2022-08-11T10:37:50;218.50;;;186.82;;
55053;SDS011;40954;45.668;18.980;2022-08-11T10:40:17;112.90;;;99.78;;
55053;SDS011;40954;45.668;18.980;2022-08-11T10:42:46;231.30;;;200.10;;
55053;SDS011;40954;45.668;18.980;2022-08-11T10:45:27;216.20;;;192.60;;
55053;SDS011;40954;45.668;18.980;2022-08-11T10:48:12;164.88;;;147.02;;
55053;SDS011;40954;45.668;18.980;2022-08-11T10:50:39;118.60;;;104.90;;
55053;SDS011;40954;45.668;18.980;2022-08-11T10:53:41;192.10;;;171.18;;
55053;SDS011;40954;45.668;18.980;2022-08-11T10:56:26;100.88;;;89.75;;
55053;SDS011;40954;45.668;18.980;2022-08-11T10:59:12;4.75;;;3.65;;
55053;SDS011;40954;45.668;18.980;2022-08-11T11:01:40;160.13;;;142.90;;
55053;SDS011;40954;45.668;18.980;2022-08-11T11:04:17;74.30;;;65.35;;
55053;SDS011;40954;45.668;18.980;2022-08-11T11:06:51;49.30;;;41.80;;
55053;SDS011;40954;45.668;18.980;2022-08-11T11:11:57;67.88;;;54.03;;
55053;SDS011;40954;45.668;18.980;2022-08-11T11:14:43;102.93;;;84.90;;
55053;SDS011;40954;45.668;18.980;2022-08-11T11:17:29;70.05;;;61.95;;
55053;SDS011;40954;45.668;18.980;2022-08-11T11:20:16;93.32;;;79.15;;
55053;SDS011;40954;45.668;18.980;2022-08-11T11:22:42;50.53;;;45.10;;
55053;SDS011;40954;45.668;18.980;2022-08-11T11:36:12;50.35;;;44.80;;
55053;SDS011;40954;45.668;18.980;2022-08-11T11:38:40;96.18;;;85.97;;
55053;SDS011;40954;45.668;18.980;2022-08-11T11:41:06;108.82;;;96.65;;
55053;SDS011;40954;45.668;18.980;2022-08-11T11:43:49;107.63;;;92.03;;
55053;SDS011;40954;45.668;18.980;2022-08-11T11:46:15;58.50;;;50.72;;
55053;SDS011;40954;45.668;18.980;2022-08-11T11:48:41;98.50;;;86.65;;
55053;SDS011;40954;45.668;18.980;2022-08-11T11:51:07;96.53;;;83.13;;
55053;SDS011;40954;45.668;18.980;2022-08-11T11:53:38;93.53;;;82.03;;
55053;SDS011;40954;45.668;18.980;2022-08-11T11:56:04;44.50;;;39.00;;
55053;SDS011;40954;45.668;18.980;2022-08-11T11:58:31;77.18;;;68.82;;
55053;SDS011;40954;45.668;18.980;2022-08-11T12:01:15;61.58;;;52.63;;
55053;SDS011;40954;45.668;18.980;2022-08-11T12:03:48;67.35;;;59.03;;
55053;SDS011;40954;45.668;18.980;2022-08-11T12:08:40;56.78;;;48.00;;
55053;SDS011;40954;45.668;18.980;2022-08-11T12:11:11;47.17;;;42.03;;
55053;SDS011;40954;45.668;18.980;2022-08-11T12:13:57;54.92;;;48.67;;
55053;SDS011;40954;45.668;18.980;2022-08-11T12:16:25;38.60;;;34.40;;
55053;SDS011;40954;45.668;18.980;2022-08-11T12:18:58;5.00;;;3.72;;
55053;SDS011;40954;45.668;18.980;2022-08-11T12:21:25;21.60;;;18.85;;
55053;SDS011;40954;45.668;18.980;2022-08-11T12:23:52;20.52;;;17.35;;
55053;SDS011;40954;45.668;18.980;2022-08-11T12:26:38;47.35;;;41.50;;
55053;SDS011;40954;45.668;18.980;2022-08-11T12:29:16;15.20;;;13.70;;
55053;SDS011;40954;45.668;18.980;2022-08-11T12:31:43;28.63;;;25.50;;
55053;SDS011;40954;45.668;18.980;2022-08-11T12:34:11;51.53;;;43.33;;
55053;SDS011;40954;45.668;18.980;2022-08-11T12:36:38;30.00;;;26.73;;
55053;SDS011;40954;45.668;18.980;2022-08-11T12:39:05;33.28;;;28.08;;
55053;SDS011;40954;45.668;18.980;2022-08-11T12:41:32;25.48;;;20.38;;
55053;SDS011;40954;45.668;18.980;2022-08-11T12:44:17;4.00;;;2.28;;
55053;SDS011;40954;45.668;18.980;2022-08-11T12:47:04;21.40;;;16.60;;
55053;SDS011;40954;45.668;18.980;2022-08-11T12:49:30;25.98;;;19.60;;
55053;SDS011;40954;45.668;18.980;2022-08-11T12:52:20;24.08;;;20.67;;
55053;SDS011;40954;45.668;18.980;2022-08-11T12:54:48;33.47;;;29.85;;
55053;SDS011;40954;45.668;18.980;2022-08-11T12:57:17;21.48;;;15.70;;
55053;SDS011;40954;45.668;18.980;2022-08-11T13:00:05;2.35;;;1.95;;
55053;SDS011;40954;45.668;18.980;2022-08-11T13:02:50;35.20;;;31.40;;
55053;SDS011;40954;45.668;18.980;2022-08-11T13:05:35;28.80;;;19.17;;
55053;SDS011;40954;45.668;18.980;2022-08-11T13:08:02;24.42;;;21.45;;
55053;SDS011;40954;45.668;18.980;2022-08-11T13:10:30;25.50;;;22.13;;
55053;SDS011;40954;45.668;18.980;2022-08-11T13:13:16;22.17;;;19.88;;
55053;SDS011;40954;45.668;18.980;2022-08-11T13:15:45;30.25;;;26.80;;
55053;SDS011;40954;45.668;18.980;2022-08-11T13:18:13;33.58;;;26.77;;
55053;SDS011;40954;45.668;18.980;2022-08-11T13:20:40;26.02;;;20.35;;
55053;SDS011;40954;45.668;18.980;2022-08-11T13:23:08;25.95;;;20.58;;
55053;SDS011;40954;45.668;18.980;2022-08-11T13:25:36;18.63;;;14.70;;
55053;SDS011;40954;45.668;18.980;2022-08-11T13:28:03;22.15;;;19.83;;
55053;SDS011;40954;45.668;18.980;2022-08-11T13:30:30;26.63;;;23.77;;
55053;SDS011;40954;45.668;18.980;2022-08-11T13:33:16;36.33;;;23.80;;
55053;SDS011;40954;45.668;18.980;2022-08-11T13:35:46;21.85;;;18.02;;
55053;SDS011;40954;45.668;18.980;2022-08-11T13:38:13;24.75;;;19.13;;
55053;SDS011;40954;45.668;18.980;2022-08-11T13:40:41;28.95;;;21.98;;
55053;SDS011;40954;45.668;18.980;2022-08-11T13:43:07;19.15;;;17.23;;
55053;SDS011;40954;45.668;18.980;2022-08-11T13:45:34;26.50;;;21.10;;
55053;SDS011;40954;45.668;18.980;2022-08-11T13:48:02;21.00;;;16.83;;
55053;SDS011;40954;45.668;18.980;2022-08-11T13:50:28;22.50;;;18.90;;
55053;SDS011;40954;45.668;18.980;2022-08-11T13:53:15;15.43;;;13.27;;
55053;SDS011;40954;45.668;18.980;2022-08-11T13:55:42;17.70;;;15.93;;
55053;SDS011;40954;45.668;18.980;2022-08-11T13:58:09;17.92;;;15.85;;
55053;SDS011;40954;45.668;18.980;2022-08-11T14:00:36;3.63;;;2.95;;
55053;SDS011;40954;45.668;18.980;2022-08-11T14:03:02;16.33;;;10.95;;
55053;SDS011;40954;45.668;18.980;2022-08-11T14:05:33;14.80;;;12.80;;
55053;SDS011;40954;45.668;18.980;2022-08-11T14:08:02;18.15;;;16.23;;
55053;SDS011;40954;45.668;18.980;2022-08-11T14:10:30;12.55;;;8.75;;
55053;SDS011;40954;45.668;18.980;2022-08-11T14:12:58;18.67;;;15.55;;
55053;SDS011;40954;45.668;18.980;2022-08-11T14:15:44;7.70;;;6.20;;
55053;SDS011;40954;45.668;18.980;2022-08-11T14:18:20;14.10;;;11.65;;
55053;SDS011;40954;45.668;18.980;2022-08-11T14:20:49;8.60;;;6.25;;
55053;SDS011;40954;45.668;18.980;2022-08-11T14:23:38;14.07;;;12.25;;
55053;SDS011;40954;45.668;18.980;2022-08-11T14:26:05;15.18;;;11.85;;
55053;SDS011;40954;45.668;18.980;2022-08-11T14:31:22;13.55;;;12.07;;
55053;SDS011;40954;45.668;18.980;2022-08-11T14:33:50;16.17;;;12.63;;
55053;SDS011;40954;45.668;18.980;2022-08-11T14:36:18;14.63;;;12.50;;
55053;SDS011;40954;45.668;18.980;2022-08-11T14:38:45;15.88;;;8.82;;
55053;SDS011;40954;45.668;18.980;2022-08-11T14:41:12;10.77;;;9.27;;
55053;SDS011;40954;45.668;18.980;2022-08-11T14:43:57;3.65;;;1.63;;
55053;SDS011;40954;45.668;18.980;2022-08-11T14:46:42;11.35;;;9.40;;
55053;SDS011;40954;45.668;18.980;2022-08-11T14:49:27;5.07;;;3.85;;
55053;SDS011;40954;45.668;18.980;2022-08-11T14:51:54;11.27;;;5.25;;
55053;SDS011;40954;45.668;18.980;2022-08-11T14:54:23;3.55;;;2.20;;
55053;SDS011;40954;45.668;18.980;2022-08-11T14:57:08;9.73;;;5.95;;
55053;SDS011;40954;45.668;18.980;2022-08-11T14:59:35;9.05;;;6.72;;
55053;SDS011;40954;45.668;18.980;2022-08-11T15:02:02;9.82;;;8.27;;
55053;SDS011;40954;45.668;18.980;2022-08-11T15:04:47;2.75;;;2.38;;
55053;SDS011;40954;45.668;18.980;2022-08-11T15:07:14;9.82;;;8.80;;
55053;SDS011;40954;45.668;18.980;2022-08-11T15:09:40;4.10;;;2.45;;
55053;SDS011;40954;45.668;18.980;2022-08-11T15:12:08;8.48;;;5.65;;
55053;SDS011;40954;45.668;18.980;2022-08-11T15:14:40;2.67;;;1.63;;
55053;SDS011;40954;45.668;18.980;2022-08-11T15:17:26;10.32;;;5.93;;
55053;SDS011;40954;45.668;18.980;2022-08-11T15:19:52;5.20;;;3.95;;
55053;SDS011;40954;45.668;18.980;2022-08-11T15:22:37;1.50;;;1.40;;
55053;SDS011;40954;45.668;18.980;2022-08-11T15:25:22;2.78;;;1.30;;
55053;SDS011;40954;45.668;18.980;2022-08-11T15:27:49;4.07;;;1.50;;
55053;SDS011;40954;45.668;18.980;2022-08-11T15:30:35;2.70;;;2.33;;
55053;SDS011;40954;45.668;18.980;2022-08-11T15:33:20;6.05;;;1.92;;
55053;SDS011;40954;45.668;18.980;2022-08-11T15:36:06;3.30;;;1.52;;
55053;SDS011;40954;45.668;18.980;2022-08-11T15:38:59;6.95;;;1.70;;
55053;SDS011;40954;45.668;18.980;2022-08-11T15:41:34;5.88;;;4.32;;
55053;SDS011;40954;45.668;18.980;2022-08-11T15:44:22;9.27;;;4.43;;
55053;SDS011;40954;45.668;18.980;2022-08-11T15:47:25;14.70;;;6.13;;
55053;SDS011;40954;45.668;18.980;2022-08-11T15:49:52;7.25;;;6.03;;
55053;SDS011;40954;45.668;18.980;2022-08-11T15:52:24;2.45;;;1.40;;
55053;SDS011;40954;45.668;18.980;2022-08-11T15:54:52;5.50;;;4.60;;
55053;SDS011;40954;45.668;18.980;2022-08-11T15:57:19;4.25;;;2.65;;
55053;SDS011;40954;45.668;18.980;2022-08-11T16:00:04;4.85;;;4.00;;
55053;SDS011;40954;45.668;18.980;2022-08-11T16:02:50;3.63;;;3.17;;
55053;SDS011;40954;45.668;18.980;2022-08-11T16:05:19;3.20;;;2.83;;
55053;SDS011;40954;45.668;18.980;2022-08-11T16:07:46;5.40;;;4.22;;
55053;SDS011;40954;45.668;18.980;2022-08-11T16:10:16;8.20;;;5.00;;
55053;SDS011;40954;45.668;18.980;2022-08-11T16:12:53;7.65;;;4.63;;
55053;SDS011;40954;45.668;18.980;2022-08-11T16:15:28;7.90;;;4.55;;
55053;SDS011;40954;45.668;18.980;2022-08-11T16:18:13;4.82;;;3.55;;
55053;SDS011;40954;45.668;18.980;2022-08-11T16:20:40;6.43;;;4.70;;
55053;SDS011;40954;45.668;18.980;2022-08-11T16:23:08;6.57;;;3.90;;
55053;SDS011;40954;45.668;18.980;2022-08-11T16:25:35;4.72;;;3.03;;
55053;SDS011;40954;45.668;18.980;2022-08-11T16:28:02;6.45;;;4.07;;
55053;SDS011;40954;45.668;18.980;2022-08-11T16:32:58;8.15;;;4.40;;
55053;SDS011;40954;45.668;18.980;2022-08-11T16:35:25;7.70;;;4.22;;
55053;SDS011;40954;45.668;18.980;2022-08-11T16:38:11;3.42;;;1.80;;
55053;SDS011;40954;45.668;18.980;2022-08-11T16:40:56;4.13;;;3.58;;
55053;SDS011;40954;45.668;18.980;2022-08-11T16:43:24;7.35;;;2.97;;
55053;SDS011;40954;45.668;18.980;2022-08-11T16:46:10;4.13;;;3.10;;
55053;SDS011;40954;45.668;18.980;2022-08-11T16:48:55;3.90;;;3.28;;
55053;SDS011;40954;45.668;18.980;2022-08-11T16:51:22;6.50;;;3.70;;
55053;SDS011;40954;45.668;18.980;2022-08-11T16:53:49;3.35;;;2.33;;
55053;SDS011;40954;45.668;18.980;2022-08-11T16:56:17;5.03;;;3.95;;
55053;SDS011;40954;45.668;18.980;2022-08-11T16:58:45;2.08;;;1.65;;
55053;SDS011;40954;45.668;18.980;2022-08-11T17:01:30;6.03;;;4.28;;
55053;SDS011;40954;45.668;18.980;2022-08-11T17:04:02;4.13;;;3.53;;
55053;SDS011;40954;45.668;18.980;2022-08-11T17:06:48;4.68;;;2.60;;
55053;SDS011;40954;45.668;18.980;2022-08-11T17:09:34;2.47;;;1.92;;
55053;SDS011;40954;45.668;18.980;2022-08-11T17:12:20;2.05;;;1.20;;
55053;SDS011;40954;45.668;18.980;2022-08-11T17:15:08;5.07;;;2.33;;
55053;SDS011;40954;45.668;18.980;2022-08-11T17:17:56;5.35;;;4.28;;
55053;SDS011;40954;45.668;18.980;2022-08-11T17:20:23;7.00;;;2.85;;
55053;SDS011;40954;45.668;18.980;2022-08-11T17:22:50;6.30;;;3.70;;
55053;SDS011;40954;45.668;18.980;2022-08-11T17:25:35;3.72;;;3.10;;
55053;SDS011;40954;45.668;18.980;2022-08-11T17:28:01;2.88;;;2.47;;
55053;SDS011;40954;45.668;18.980;2022-08-11T17:30:27;4.53;;;3.92;;
55053;SDS011;40954;45.668;18.980;2022-08-11T17:33:14;9.50;;;5.70;;
55053;SDS011;40954;45.668;18.980;2022-08-11T17:35:59;9.02;;;7.00;;
55053;SDS011;40954;45.668;18.980;2022-08-11T17:38:27;8.75;;;7.63;;
55053;SDS011;40954;45.668;18.980;2022-08-11T17:40:53;7.53;;;3.78;;
55053;SDS011;40954;45.668;18.980;2022-08-11T17:43:39;2.72;;;2.25;;
55053;SDS011;40954;45.668;18.980;2022-08-11T17:46:24;3.58;;;1.90;;
55053;SDS011;40954;45.668;18.980;2022-08-11T17:49:10;6.72;;;5.80;;
55053;SDS011;40954;45.668;18.980;2022-08-11T17:51:37;4.05;;;2.65;;
55053;SDS011;40954;45.668;18.980;2022-08-11T17:54:22;2.15;;;2.05;;
55053;SDS011;40954;45.668;18.980;2022-08-11T17:57:07;2.15;;;1.98;;
55053;SDS011;40954;45.668;18.980;2022-08-11T17:59:53;2.20;;;1.75;;
55053;SDS011;40954;45.668;18.980;2022-08-11T18:02:34;4.85;;;2.20;;
55053;SDS011;40954;45.668;18.980;2022-08-11T18:05:19;1.90;;;1.80;;
55053;SDS011;40954;45.668;18.980;2022-08-11T18:07:47;8.35;;;2.95;;
55053;SDS011;40954;45.668;18.980;2022-08-11T18:10:33;4.30;;;1.90;;
55053;SDS011;40954;45.668;18.980;2022-08-11T18:13:22;2.55;;;2.15;;
55053;SDS011;40954;45.668;18.980;2022-08-11T18:16:07;3.70;;;2.50;;
55053;SDS011;40954;45.668;18.980;2022-08-11T18:18:52;3.80;;;2.65;;
55053;SDS011;40954;45.668;18.980;2022-08-11T18:21:37;2.92;;;2.72;;
55053;SDS011;40954;45.668;18.980;2022-08-11T18:24:24;4.50;;;2.03;;
55053;SDS011;40954;45.668;18.980;2022-08-11T18:27:10;3.78;;;2.10;;
55053;SDS011;40954;45.668;18.980;2022-08-11T18:29:57;4.45;;;2.30;;
55053;SDS011;40954;45.668;18.980;2022-08-11T18:32:43;8.68;;;2.40;;
55053;SDS011;40954;45.668;18.980;2022-08-11T18:35:28;5.53;;;2.03;;
55053;SDS011;40954;45.668;18.980;2022-08-11T18:38:12;3.50;;;2.10;;
55053;SDS011;40954;45.668;18.980;2022-08-11T18:40:57;3.58;;;1.90;;
55053;SDS011;40954;45.668;18.980;2022-08-11T18:43:44;5.57;;;2.10;;
55053;SDS011;40954;45.668;18.980;2022-08-11T18:46:35;6.72;;;2.60;;
55053;SDS011;40954;45.668;18.980;2022-08-11T18:49:21;4.35;;;2.67;;
55053;SDS011;40954;45.668;18.980;2022-08-11T18:52:07;6.05;;;2.40;;
55053;SDS011;40954;45.668;18.980;2022-08-11T18:54:53;6.10;;;2.42;;
55053;SDS011;40954;45.668;18.980;2022-08-11T18:57:40;4.65;;;2.60;;
55053;SDS011;40954;45.668;18.980;2022-08-11T19:00:25;3.28;;;2.10;;
55053;SDS011;40954;45.668;18.980;2022-08-11T19:03:12;2.65;;;2.22;;